sensor_id;sensor_type;location;lat;lon;timestamp;pressure;altitude;pressure_sealevel;temperature;humidity
43711;BME280;29309;42.682;23.372;2022-09-12T00:02:15;95004.97;;;17.05;75.85
43711;BME280;29309;42.682;23.372;2022-09-12T00:04:41;95009.59;;;16.92;75.55
43711;BME280;29309;42.682;23.372;2022-09-12T00:07:06;95003.53;;;16.72;76.56
43711;BME280;29309;42.682;23.372;2022-09-12T00:09:32;95010.66;;;16.77;76.50
43711;BME280;29309;42.682;23.372;2022-09-12T00:11:57;95013.59;;;16.83;76.62
43711;BME280;29309;42.682;23.372;2022-09-12T00:14:23;95019.19;;;16.83;76.37
43711;BME280;29309;42.682;23.372;2022-09-12T00:16:48;95019.16;;;16.81;76.38
43711;BME280;29309;42.682;23.372;2022-09-12T00:19:14;95021.56;;;16.65;76.53
43711;BME280;29309;42.682;23.372;2022-09-12T00:21:47;95027.69;;;16.57;77.15
43711;BME280;29309;42.682;23.372;2022-09-12T00:24:12;95017.03;;;16.52;77.12
43711;BME280;29309;42.682;23.372;2022-09-12T00:26:38;95028.28;;;16.54;76.92
43711;BME280;29309;42.682;23.372;2022-09-12T00:29:03;95026.78;;;16.49;77.25
43711;BME280;29309;42.682;23.372;2022-09-12T00:31:29;95025.81;;;16.38;77.36
43711;BME280;29309;42.682;23.372;2022-09-12T00:33:56;95014.66;;;16.40;77.36
43711;BME280;29309;42.682;23.372;2022-09-12T00:36:26;95021.53;;;16.35;77.71
43711;BME280;29309;42.682;23.372;2022-09-12T00:38:52;95007.22;;;16.23;77.84
43711;BME280;29309;42.682;23.372;2022-09-12T00:41:22;95018.66;;;16.31;77.48
43711;BME280;29309;42.682;23.372;2022-09-12T00:43:57;95022.84;;;16.32;77.20
43711;BME280;29309;42.682;23.372;2022-09-12T00:49:13;95022.44;;;16.16;77.26
43711;BME280;29309;42.682;23.372;2022-09-12T00:51:47;95017.69;;;16.20;77.04
43711;BME280;29309;42.682;23.372;2022-09-12T00:54:18;95015.41;;;16.15;77.30
43711;BME280;29309;42.682;23.372;2022-09-12T00:56:46;95027.47;;;16.21;77.00
43711;BME280;29309;42.682;23.372;2022-09-12T00:59:19;95016.69;;;16.10;77.08
43711;BME280;29309;42.682;23.372;2022-09-12T01:01:49;95015.19;;;16.07;76.72
43711;BME280;29309;42.682;23.372;2022-09-12T01:04:20;95021.63;;;16.11;76.36
43711;BME280;29309;42.682;23.372;2022-09-12T01:06:47;95009.00;;;16.10;76.24
43711;BME280;29309;42.682;23.372;2022-09-12T01:09:17;95003.28;;;16.06;76.20
43711;BME280;29309;42.682;23.372;2022-09-12T01:11:44;94999.69;;;16.02;76.21
43711;BME280;29309;42.682;23.372;2022-09-12T01:14:13;95002.31;;;15.96;76.62
43711;BME280;29309;42.682;23.372;2022-09-12T01:16:41;95004.41;;;15.95;76.61
43711;BME280;29309;42.682;23.372;2022-09-12T01:22:42;95008.13;;;16.04;76.69
43711;BME280;29309;42.682;23.372;2022-09-12T01:25:47;95000.13;;;15.92;76.70
43711;BME280;29309;42.682;23.372;2022-09-12T01:31:42;94996.56;;;15.90;76.46
43711;BME280;29309;42.682;23.372;2022-09-12T01:37:04;95000.19;;;15.94;76.17
43711;BME280;29309;42.682;23.372;2022-09-12T01:39:44;95011.59;;;16.02;75.70
43711;BME280;29309;42.682;23.372;2022-09-12T01:42:40;95006.50;;;15.95;76.05
43711;BME280;29309;42.682;23.372;2022-09-12T01:45:27;94997.28;;;15.90;75.63
43711;BME280;29309;42.682;23.372;2022-09-12T01:48:23;94997.94;;;15.89;75.70
43711;BME280;29309;42.682;23.372;2022-09-12T01:51:40;95001.22;;;15.81;75.65
43711;BME280;29309;42.682;23.372;2022-09-12T01:54:14;94995.38;;;15.71;75.64
43711;BME280;29309;42.682;23.372;2022-09-12T01:56:42;94984.84;;;15.69;76.24
43711;BME280;29309;42.682;23.372;2022-09-12T01:59:15;94989.53;;;15.63;76.23
43711;BME280;29309;42.682;23.372;2022-09-12T02:01:50;94984.00;;;15.65;75.94
43711;BME280;29309;42.682;23.372;2022-09-12T02:04:22;94979.75;;;15.62;76.43
43711;BME280;29309;42.682;23.372;2022-09-12T02:06:54;94989.81;;;15.47;76.98
43711;BME280;29309;42.682;23.372;2022-09-12T02:09:29;94990.34;;;15.42;76.72
43711;BME280;29309;42.682;23.372;2022-09-12T02:11:59;94999.94;;;15.35;77.54
43711;BME280;29309;42.682;23.372;2022-09-12T02:14:29;94994.44;;;15.39;77.33
43711;BME280;29309;42.682;23.372;2022-09-12T02:17:08;95001.59;;;15.44;77.04
43711;BME280;29309;42.682;23.372;2022-09-12T02:19:40;95004.81;;;15.34;77.29
43711;BME280;29309;42.682;23.372;2022-09-12T02:22:10;95006.13;;;15.31;77.24
43711;BME280;29309;42.682;23.372;2022-09-12T02:24:41;95004.63;;;15.28;77.34
43711;BME280;29309;42.682;23.372;2022-09-12T02:27:39;95001.19;;;15.30;77.16
43711;BME280;29309;42.682;23.372;2022-09-12T02:30:06;94988.22;;;15.16;77.01
43711;BME280;29309;42.682;23.372;2022-09-12T02:35:38;95001.44;;;15.14;77.19
43711;BME280;29309;42.682;23.372;2022-09-12T02:40:52;95005.59;;;15.13;77.26
43711;BME280;29309;42.682;23.372;2022-09-12T02:43:18;95004.88;;;15.12;77.29
43711;BME280;29309;42.682;23.372;2022-09-12T02:45:44;95012.16;;;15.21;77.21
43711;BME280;29309;42.682;23.372;2022-09-12T02:50:39;95007.50;;;15.06;76.98
43711;BME280;29309;42.682;23.372;2022-09-12T02:53:06;95009.22;;;15.17;76.86
43711;BME280;29309;42.682;23.372;2022-09-12T02:55:34;95008.03;;;15.24;76.63
43711;BME280;29309;42.682;23.372;2022-09-12T02:58:05;95017.84;;;15.25;76.24
43711;BME280;29309;42.682;23.372;2022-09-12T03:00:48;95031.97;;;15.30;76.17
43711;BME280;29309;42.682;23.372;2022-09-12T03:03:35;95021.59;;;15.34;76.25
43711;BME280;29309;42.682;23.372;2022-09-12T03:06:16;95036.38;;;15.37;75.96
43711;BME280;29309;42.682;23.372;2022-09-12T03:08:56;95017.50;;;15.37;75.43
43711;BME280;29309;42.682;23.372;2022-09-12T03:14:34;95019.47;;;15.33;75.21
43711;BME280;29309;42.682;23.372;2022-09-12T03:17:34;95022.13;;;15.28;75.34
43711;BME280;29309;42.682;23.372;2022-09-12T03:22:53;95017.63;;;15.17;75.49
43711;BME280;29309;42.682;23.372;2022-09-12T03:25:35;95020.41;;;15.17;75.58
43711;BME280;29309;42.682;23.372;2022-09-12T03:28:10;95017.31;;;15.07;76.00
43711;BME280;29309;42.682;23.372;2022-09-12T03:30:47;95015.97;;;15.08;75.67
43711;BME280;29309;42.682;23.372;2022-09-12T03:33:17;95011.00;;;15.07;75.75
43711;BME280;29309;42.682;23.372;2022-09-12T03:35:46;95016.78;;;15.13;75.54
43711;BME280;29309;42.682;23.372;2022-09-12T03:38:12;95012.38;;;15.06;75.86
43711;BME280;29309;42.682;23.372;2022-09-12T03:40:38;95015.88;;;15.06;76.16
43711;BME280;29309;42.682;23.372;2022-09-12T03:43:08;95022.19;;;15.07;76.47
43711;BME280;29309;42.682;23.372;2022-09-12T03:45:35;95019.28;;;15.03;76.85
43711;BME280;29309;42.682;23.372;2022-09-12T03:48:00;95022.91;;;15.07;76.60
43711;BME280;29309;42.682;23.372;2022-09-12T03:50:26;95018.84;;;15.12;76.22
43711;BME280;29309;42.682;23.372;2022-09-12T03:52:51;95017.56;;;15.15;76.18
43711;BME280;29309;42.682;23.372;2022-09-12T03:55:17;95022.97;;;15.09;76.28
43711;BME280;29309;42.682;23.372;2022-09-12T03:57:44;95010.84;;;15.01;76.27
43711;BME280;29309;42.682;23.372;2022-09-12T04:00:12;95007.72;;;14.91;76.74
43711;BME280;29309;42.682;23.372;2022-09-12T04:02:38;95019.63;;;14.91;76.76
43711;BME280;29309;42.682;23.372;2022-09-12T04:05:04;95017.53;;;14.92;76.98
43711;BME280;29309;42.682;23.372;2022-09-12T04:07:29;95017.03;;;14.97;76.82
43711;BME280;29309;42.682;23.372;2022-09-12T04:09:55;95018.25;;;14.92;76.91
43711;BME280;29309;42.682;23.372;2022-09-12T04:12:20;95023.69;;;14.86;76.82
43711;BME280;29309;42.682;23.372;2022-09-12T04:14:46;95023.47;;;14.80;77.27
43711;BME280;29309;42.682;23.372;2022-09-12T04:17:12;95026.22;;;14.78;77.42
43711;BME280;29309;42.682;23.372;2022-09-12T04:19:38;95020.88;;;14.86;77.47
43711;BME280;29309;42.682;23.372;2022-09-12T04:22:04;95029.41;;;14.90;77.12
43711;BME280;29309;42.682;23.372;2022-09-12T04:24:29;95023.59;;;14.84;77.48
43711;BME280;29309;42.682;23.372;2022-09-12T04:26:55;95023.56;;;14.82;77.59
43711;BME280;29309;42.682;23.372;2022-09-12T04:29:20;95036.03;;;14.79;78.04
43711;BME280;29309;42.682;23.372;2022-09-12T04:31:46;95031.97;;;14.84;77.35
43711;BME280;29309;42.682;23.372;2022-09-12T04:34:12;95040.75;;;14.96;77.25
43711;BME280;29309;42.682;23.372;2022-09-12T04:36:39;95035.34;;;15.02;76.95
43711;BME280;29309;42.682;23.372;2022-09-12T04:39:05;95018.91;;;14.91;77.15
43711;BME280;29309;42.682;23.372;2022-09-12T04:41:37;95023.25;;;14.96;77.03
43711;BME280;29309;42.682;23.372;2022-09-12T04:44:10;95026.34;;;15.06;76.89
43711;BME280;29309;42.682;23.372;2022-09-12T04:46:37;95028.44;;;15.05;76.52
43711;BME280;29309;42.682;23.372;2022-09-12T04:49:04;95031.34;;;15.09;76.36
43711;BME280;29309;42.682;23.372;2022-09-12T04:51:32;95036.91;;;15.07;76.14
43711;BME280;29309;42.682;23.372;2022-09-12T04:54:15;95037.53;;;15.06;76.09
43711;BME280;29309;42.682;23.372;2022-09-12T04:56:43;95040.81;;;14.98;76.62
43711;BME280;29309;42.682;23.372;2022-09-12T04:59:10;95036.94;;;15.09;76.27
43711;BME280;29309;42.682;23.372;2022-09-12T05:01:36;95039.88;;;15.13;76.10
43711;BME280;29309;42.682;23.372;2022-09-12T05:04:02;95041.59;;;15.24;76.19
43711;BME280;29309;42.682;23.372;2022-09-12T05:06:30;95038.75;;;15.22;75.62
43711;BME280;29309;42.682;23.372;2022-09-12T05:08:58;95040.41;;;15.32;75.57
43711;BME280;29309;42.682;23.372;2022-09-12T05:11:29;95047.66;;;15.41;74.91
43711;BME280;29309;42.682;23.372;2022-09-12T05:13:54;95044.69;;;15.35;75.08
43711;BME280;29309;42.682;23.372;2022-09-12T05:16:21;95046.94;;;15.40;75.17
43711;BME280;29309;42.682;23.372;2022-09-12T05:18:47;95053.44;;;15.47;74.95
43711;BME280;29309;42.682;23.372;2022-09-12T05:21:16;95049.59;;;15.58;74.42
43711;BME280;29309;42.682;23.372;2022-09-12T05:23:42;95041.34;;;15.64;73.88
43711;BME280;29309;42.682;23.372;2022-09-12T05:26:12;95042.28;;;15.72;73.57
43711;BME280;29309;42.682;23.372;2022-09-12T05:28:38;95037.56;;;15.79;72.91
43711;BME280;29309;42.682;23.372;2022-09-12T05:31:19;95038.56;;;15.90;72.94
43711;BME280;29309;42.682;23.372;2022-09-12T05:33:46;95043.22;;;16.07;72.01
43711;BME280;29309;42.682;23.372;2022-09-12T05:36:14;95042.00;;;16.14;71.39
43711;BME280;29309;42.682;23.372;2022-09-12T05:38:41;95042.06;;;16.16;71.61
43711;BME280;29309;42.682;23.372;2022-09-12T05:41:13;95050.34;;;16.12;70.91
43711;BME280;29309;42.682;23.372;2022-09-12T05:43:40;95056.31;;;15.98;70.83
43711;BME280;29309;42.682;23.372;2022-09-12T05:46:09;95045.69;;;15.95;71.14
43711;BME280;29309;42.682;23.372;2022-09-12T05:48:36;95045.13;;;16.00;71.20
43711;BME280;29309;42.682;23.372;2022-09-12T05:51:05;95049.69;;;16.13;71.52
43711;BME280;29309;42.682;23.372;2022-09-12T05:53:34;95042.59;;;16.10;71.25
43711;BME280;29309;42.682;23.372;2022-09-12T05:56:11;95028.66;;;16.12;70.56
43711;BME280;29309;42.682;23.372;2022-09-12T05:58:39;95037.88;;;16.45;69.96
43711;BME280;29309;42.682;23.372;2022-09-12T06:01:06;95028.88;;;16.48;69.76
43711;BME280;29309;42.682;23.372;2022-09-12T06:03:38;95019.97;;;16.56;68.93
43711;BME280;29309;42.682;23.372;2022-09-12T06:06:05;95016.66;;;16.63;68.27
43711;BME280;29309;42.682;23.372;2022-09-12T06:08:32;95026.38;;;16.90;67.87
43711;BME280;29309;42.682;23.372;2022-09-12T06:11:02;95015.75;;;17.16;66.54
43711;BME280;29309;42.682;23.372;2022-09-12T06:13:33;95011.19;;;17.65;65.79
43711;BME280;29309;42.682;23.372;2022-09-12T06:16:06;95018.50;;;18.20;64.03
43711;BME280;29309;42.682;23.372;2022-09-12T06:18:36;95013.09;;;18.72;62.03
43711;BME280;29309;42.682;23.372;2022-09-12T06:21:09;95014.50;;;19.19;60.14
43711;BME280;29309;42.682;23.372;2022-09-12T06:23:35;95015.91;;;19.72;58.54
43711;BME280;29309;42.682;23.372;2022-09-12T06:26:02;95028.47;;;20.25;56.91
43711;BME280;29309;42.682;23.372;2022-09-12T06:28:29;95013.91;;;20.49;54.97
43711;BME280;29309;42.682;23.372;2022-09-12T06:31:06;95024.94;;;21.09;54.20
43711;BME280;29309;42.682;23.372;2022-09-12T06:33:33;95035.81;;;21.49;52.29
43711;BME280;29309;42.682;23.372;2022-09-12T06:36:08;95043.66;;;21.63;51.73
43711;BME280;29309;42.682;23.372;2022-09-12T06:38:34;95042.31;;;21.80;51.30
43711;BME280;29309;42.682;23.372;2022-09-12T06:41:03;95057.25;;;21.96;51.06
43711;BME280;29309;42.682;23.372;2022-09-12T06:43:30;95048.91;;;22.45;49.43
43711;BME280;29309;42.682;23.372;2022-09-12T06:45:56;95052.53;;;22.84;48.11
43711;BME280;29309;42.682;23.372;2022-09-12T06:48:22;95045.44;;;23.07;47.23
43711;BME280;29309;42.682;23.372;2022-09-12T06:51:02;95047.56;;;23.21;46.44
43711;BME280;29309;42.682;23.372;2022-09-12T06:53:28;95051.09;;;23.25;46.80
43711;BME280;29309;42.682;23.372;2022-09-12T06:55:59;95051.78;;;23.34;46.89
43711;BME280;29309;42.682;23.372;2022-09-12T06:58:27;95056.00;;;23.65;46.26
43711;BME280;29309;42.682;23.372;2022-09-12T07:01:00;95041.66;;;24.14;45.08
43711;BME280;29309;42.682;23.372;2022-09-12T07:03:27;95060.06;;;24.25;44.50
43711;BME280;29309;42.682;23.372;2022-09-12T07:05:53;95045.88;;;24.27;43.93
43711;BME280;29309;42.682;23.372;2022-09-12T07:08:18;95064.34;;;24.18;44.14
43711;BME280;29309;42.682;23.372;2022-09-12T07:10:43;95061.38;;;24.42;43.97
43711;BME280;29309;42.682;23.372;2022-09-12T07:21:02;95068.78;;;23.62;45.17
43711;BME280;29309;42.682;23.372;2022-09-12T07:23:28;95057.41;;;23.64;44.50
43711;BME280;29309;42.682;23.372;2022-09-12T07:25:55;95064.44;;;23.87;44.19
43711;BME280;29309;42.682;23.372;2022-09-12T07:28:22;95065.25;;;23.43;44.83
43711;BME280;29309;42.682;23.372;2022-09-12T07:30:49;95063.84;;;23.20;45.13
43711;BME280;29309;42.682;23.372;2022-09-12T07:33:14;95047.56;;;22.90;45.84
43711;BME280;29309;42.682;23.372;2022-09-12T07:35:40;95046.13;;;23.16;45.86
43711;BME280;29309;42.682;23.372;2022-09-12T07:38:05;95047.56;;;23.02;44.87
43711;BME280;29309;42.682;23.372;2022-09-12T07:40:30;95056.03;;;23.45;44.35
43711;BME280;29309;42.682;23.372;2022-09-12T07:42:56;95053.22;;;23.45;44.35
43711;BME280;29309;42.682;23.372;2022-09-12T07:45:21;95053.19;;;23.41;43.68
43711;BME280;29309;42.682;23.372;2022-09-12T07:47:47;95051.06;;;23.49;42.97
43711;BME280;29309;42.682;23.372;2022-09-12T07:50:12;95045.31;;;23.78;42.37
43711;BME280;29309;42.682;23.372;2022-09-12T07:52:38;95055.78;;;24.28;42.22
43711;BME280;29309;42.682;23.372;2022-09-12T07:55:06;95046.22;;;24.80;40.90
43711;BME280;29309;42.682;23.372;2022-09-12T07:57:32;95049.69;;;24.92;39.77
43711;BME280;29309;42.682;23.372;2022-09-12T07:59:57;95046.78;;;25.05;39.71
43711;BME280;29309;42.682;23.372;2022-09-12T08:02:23;95044.50;;;25.21;39.07
43711;BME280;29309;42.682;23.372;2022-09-12T08:04:48;95059.06;;;25.62;38.15
43711;BME280;29309;42.682;23.372;2022-09-12T08:07:15;95056.19;;;25.64;37.52
43711;BME280;29309;42.682;23.372;2022-09-12T08:09:43;95052.28;;;25.27;37.57
43711;BME280;29309;42.682;23.372;2022-09-12T08:12:08;95054.19;;;25.53;37.81
43711;BME280;29309;42.682;23.372;2022-09-12T08:14:37;95063.28;;;25.67;37.54
43711;BME280;29309;42.682;23.372;2022-09-12T08:17:02;95047.47;;;25.80;36.83
43711;BME280;29309;42.682;23.372;2022-09-12T08:19:28;95057.75;;;26.14;36.75
43711;BME280;29309;42.682;23.372;2022-09-12T08:21:53;95049.00;;;25.71;37.06
43711;BME280;29309;42.682;23.372;2022-09-12T08:24:19;95049.78;;;25.66;36.94
43711;BME280;29309;42.682;23.372;2022-09-12T08:26:44;95051.06;;;25.77;37.02
43711;BME280;29309;42.682;23.372;2022-09-12T08:29:10;95057.81;;;26.08;36.96
43711;BME280;29309;42.682;23.372;2022-09-12T08:31:36;95063.13;;;25.79;37.39
43711;BME280;29309;42.682;23.372;2022-09-12T08:34:03;95035.97;;;25.90;36.34
43711;BME280;29309;42.682;23.372;2022-09-12T08:36:30;95056.19;;;26.29;36.47
43711;BME280;29309;42.682;23.372;2022-09-12T08:38:59;95045.34;;;26.40;36.32
43711;BME280;29309;42.682;23.372;2022-09-12T08:52:19;95052.47;;;25.01;38.62
43711;BME280;29309;42.682;23.372;2022-09-12T08:54:46;95042.94;;;24.39;39.37
43711;BME280;29309;42.682;23.372;2022-09-12T08:57:13;95048.69;;;24.31;39.95
43711;BME280;29309;42.682;23.372;2022-09-12T08:59:43;95030.34;;;23.99;40.16
43711;BME280;29309;42.682;23.372;2022-09-12T09:04:50;95032.88;;;24.60;39.96
43711;BME280;29309;42.682;23.372;2022-09-12T09:10:32;95034.44;;;24.39;40.40
43711;BME280;29309;42.682;23.372;2022-09-12T09:13:18;95032.91;;;24.54;39.75
43711;BME280;29309;42.682;23.372;2022-09-12T09:16:20;95024.44;;;24.50;39.19
43711;BME280;29309;42.682;23.372;2022-09-12T09:18:46;95028.66;;;24.53;38.99
43711;BME280;29309;42.682;23.372;2022-09-12T09:23:48;95022.91;;;24.65;38.49
43711;BME280;29309;42.682;23.372;2022-09-12T09:26:48;95023.69;;;24.54;38.46
43711;BME280;29309;42.682;23.372;2022-09-12T09:29:21;95009.03;;;24.19;38.65
43711;BME280;29309;42.682;23.372;2022-09-12T09:31:51;95023.19;;;24.21;39.41
43711;BME280;29309;42.682;23.372;2022-09-12T09:34:21;95017.53;;;24.13;39.48
43711;BME280;29309;42.682;23.372;2022-09-12T09:36:54;95011.72;;;24.43;38.75
43711;BME280;29309;42.682;23.372;2022-09-12T09:39:48;95016.13;;;24.14;39.33
43711;BME280;29309;42.682;23.372;2022-09-12T09:42:43;95002.56;;;24.28;39.30
43711;BME280;29309;42.682;23.372;2022-09-12T09:45:16;95008.25;;;24.30;39.01
43711;BME280;29309;42.682;23.372;2022-09-12T09:47:56;95003.94;;;24.35;39.05
43711;BME280;29309;42.682;23.372;2022-09-12T09:50:23;94988.91;;;24.59;38.64
43711;BME280;29309;42.682;23.372;2022-09-12T09:52:49;95002.50;;;24.40;38.69
43711;BME280;29309;42.682;23.372;2022-09-12T09:55:23;94999.75;;;24.26;38.78
43711;BME280;29309;42.682;23.372;2022-09-12T09:57:50;95001.72;;;24.50;38.77
43711;BME280;29309;42.682;23.372;2022-09-12T10:00:32;95004.63;;;24.44;38.81
43711;BME280;29309;42.682;23.372;2022-09-12T10:05:28;94991.25;;;24.26;39.03
43711;BME280;29309;42.682;23.372;2022-09-12T10:07:54;94991.94;;;24.31;39.25
43711;BME280;29309;42.682;23.372;2022-09-12T10:10:20;94988.28;;;24.48;39.25
43711;BME280;29309;42.682;23.372;2022-09-12T10:12:49;94986.66;;;24.72;38.48
43711;BME280;29309;42.682;23.372;2022-09-12T10:15:22;94975.19;;;23.74;38.98
43711;BME280;29309;42.682;23.372;2022-09-12T10:17:51;94975.03;;;24.05;38.59
43711;BME280;29309;42.682;23.372;2022-09-12T10:20:41;94976.34;;;24.30;38.28
43711;BME280;29309;42.682;23.372;2022-09-12T10:25:47;94983.19;;;24.61;37.62
43711;BME280;29309;42.682;23.372;2022-09-12T10:28:24;94981.09;;;24.58;38.01
43711;BME280;29309;42.682;23.372;2022-09-12T10:30:54;94980.38;;;24.61;38.83
43711;BME280;29309;42.682;23.372;2022-09-12T10:33:22;94989.84;;;24.23;38.66
43711;BME280;29309;42.682;23.372;2022-09-12T10:35:52;94996.50;;;23.65;40.60
43711;BME280;29309;42.682;23.372;2022-09-12T10:38:31;94993.69;;;23.49;40.22
43711;BME280;29309;42.682;23.372;2022-09-12T10:41:00;94983.75;;;23.56;39.94
43711;BME280;29309;42.682;23.372;2022-09-12T10:43:38;94980.84;;;23.74;39.63
43711;BME280;29309;42.682;23.372;2022-09-12T10:46:28;94983.75;;;23.58;39.19
43711;BME280;29309;42.682;23.372;2022-09-12T10:49:20;94990.06;;;23.79;37.65
43711;BME280;29309;42.682;23.372;2022-09-12T10:51:47;94987.13;;;24.01;37.81
43711;BME280;29309;42.682;23.372;2022-09-12T10:54:16;94989.19;;;24.11;37.20
43711;BME280;29309;42.682;23.372;2022-09-12T11:00:03;94983.47;;;24.21;36.75
43711;BME280;29309;42.682;23.372;2022-09-12T11:02:42;94984.22;;;24.15;37.89
43711;BME280;29309;42.682;23.372;2022-09-12T11:07:50;94987.34;;;23.28;39.21
43711;BME280;29309;42.682;23.372;2022-09-12T11:13:20;94978.75;;;23.69;39.39
43711;BME280;29309;42.682;23.372;2022-09-12T11:25:58;94985.03;;;23.89;39.61
43711;BME280;29309;42.682;23.372;2022-09-12T11:30:25;94992.88;;;23.83;38.93
43711;BME280;29309;42.682;23.372;2022-09-12T11:33:16;94989.94;;;24.05;38.96
43711;BME280;29309;42.682;23.372;2022-09-12T11:35:49;94985.81;;;23.72;38.78
43711;BME280;29309;42.682;23.372;2022-09-12T11:41:00;95002.28;;;22.78;40.23
43711;BME280;29309;42.682;23.372;2022-09-12T11:43:49;94992.34;;;22.59;40.67
43711;BME280;29309;42.682;23.372;2022-09-12T11:46:37;95002.88;;;22.14;41.54
43711;BME280;29309;42.682;23.372;2022-09-12T11:49:11;95005.72;;;22.10;41.66
43711;BME280;29309;42.682;23.372;2022-09-12T11:51:49;94992.16;;;21.76;42.38
43711;BME280;29309;42.682;23.372;2022-09-12T11:56:45;94995.75;;;21.93;41.99
43711;BME280;29309;42.682;23.372;2022-09-12T11:59:28;94988.09;;;22.46;42.07
43711;BME280;29309;42.682;23.372;2022-09-12T12:01:57;94994.47;;;22.61;40.41
43711;BME280;29309;42.682;23.372;2022-09-12T12:04:38;94995.19;;;23.03;39.63
43711;BME280;29309;42.682;23.372;2022-09-12T12:07:09;94993.75;;;23.25;39.46
43711;BME280;29309;42.682;23.372;2022-09-12T12:09:42;94988.13;;;22.70;40.72
43711;BME280;29309;42.682;23.372;2022-09-12T12:12:18;94983.13;;;23.17;40.29
43711;BME280;29309;42.682;23.372;2022-09-12T12:14:46;94976.50;;;23.95;39.15
43711;BME280;29309;42.682;23.372;2022-09-12T12:17:18;94961.63;;;24.96;37.79
43711;BME280;29309;42.682;23.372;2022-09-12T12:19:45;94976.31;;;25.21;36.74
43711;BME280;29309;42.682;23.372;2022-09-12T12:22:20;94988.78;;;24.71;36.79
43711;BME280;29309;42.682;23.372;2022-09-12T12:27:48;94978.09;;;23.48;37.10
43711;BME280;29309;42.682;23.372;2022-09-12T12:35:41;94971.13;;;22.68;39.06
43711;BME280;29309;42.682;23.372;2022-09-12T12:40:53;94962.47;;;21.75;42.19
43711;BME280;29309;42.682;23.372;2022-09-12T12:43:35;94962.50;;;21.83;43.67
43711;BME280;29309;42.682;23.372;2022-09-12T12:46:06;94976.63;;;21.81;43.32
43711;BME280;29309;42.682;23.372;2022-09-12T12:48:35;94979.38;;;21.55;42.65
43711;BME280;29309;42.682;23.372;2022-09-12T12:51:26;94980.56;;;21.14;43.56
43711;BME280;29309;42.682;23.372;2022-09-12T12:53:54;94982.09;;;21.37;44.03
43711;BME280;29309;42.682;23.372;2022-09-12T12:59:13;94982.19;;;21.61;43.64
43711;BME280;29309;42.682;23.372;2022-09-12T13:01:52;94980.78;;;21.64;43.02
43711;BME280;29309;42.682;23.372;2022-09-12T13:04:20;94973.75;;;21.63;43.58
43711;BME280;29309;42.682;23.372;2022-09-12T13:07:02;94984.38;;;21.73;43.83
43711;BME280;29309;42.682;23.372;2022-09-12T13:09:36;94971.59;;;21.64;44.23
43711;BME280;29309;42.682;23.372;2022-09-12T13:12:24;94984.34;;;21.67;44.06
43711;BME280;29309;42.682;23.372;2022-09-12T13:14:56;94979.38;;;21.55;44.03
43711;BME280;29309;42.682;23.372;2022-09-12T13:17:26;94970.81;;;21.41;44.63
43711;BME280;29309;42.682;23.372;2022-09-12T13:20:13;94977.03;;;21.15;45.37
43711;BME280;29309;42.682;23.372;2022-09-12T13:22:49;94973.50;;;21.15;46.20
43711;BME280;29309;42.682;23.372;2022-09-12T13:25:41;94969.34;;;21.28;44.59
43711;BME280;29309;42.682;23.372;2022-09-12T13:28:17;94978.31;;;20.96;44.41
43711;BME280;29309;42.682;23.372;2022-09-12T13:33:35;94966.31;;;20.97;44.80
43711;BME280;29309;42.682;23.372;2022-09-12T13:39:14;94970.50;;;20.92;44.69
43711;BME280;29309;42.682;23.372;2022-09-12T13:45:34;94971.22;;;20.93;44.70
43711;BME280;29309;42.682;23.372;2022-09-12T13:48:00;94959.84;;;20.81;44.12
43711;BME280;29309;42.682;23.372;2022-09-12T13:50:36;94969.13;;;20.95;44.48
43711;BME280;29309;42.682;23.372;2022-09-12T13:53:06;94969.25;;;21.14;44.85
43711;BME280;29309;42.682;23.372;2022-09-12T13:55:38;94969.31;;;21.20;44.56
43711;BME280;29309;42.682;23.372;2022-09-12T13:58:25;94968.59;;;21.19;44.87
43711;BME280;29309;42.682;23.372;2022-09-12T14:01:05;94974.97;;;21.22;45.42
43711;BME280;29309;42.682;23.372;2022-09-12T14:03:33;94977.78;;;21.24;44.66
43711;BME280;29309;42.682;23.372;2022-09-12T14:06:49;94974.28;;;21.23;43.46
43711;BME280;29309;42.682;23.372;2022-09-12T14:09:22;94967.09;;;21.08;43.54
43711;BME280;29309;42.682;23.372;2022-09-12T14:11:48;94972.00;;;21.03;43.75
43711;BME280;29309;42.682;23.372;2022-09-12T14:16:55;94963.53;;;21.05;43.77
43711;BME280;29309;42.682;23.372;2022-09-12T14:19:22;94971.94;;;20.95;44.01
43711;BME280;29309;42.682;23.372;2022-09-12T14:21:51;94965.63;;;21.03;44.21
43711;BME280;29309;42.682;23.372;2022-09-12T14:24:17;94966.34;;;21.03;44.34
43711;BME280;29309;42.682;23.372;2022-09-12T14:26:48;94973.38;;;20.96;44.56
43711;BME280;29309;42.682;23.372;2022-09-12T14:29:15;94963.97;;;20.66;45.45
43711;BME280;29309;42.682;23.372;2022-09-12T14:31:42;94976.78;;;20.81;45.60
43711;BME280;29309;42.682;23.372;2022-09-12T14:34:16;94973.78;;;20.56;46.13
43711;BME280;29309;42.682;23.372;2022-09-12T14:36:52;94975.81;;;20.48;46.36
43711;BME280;29309;42.682;23.372;2022-09-12T14:42:05;94967.59;;;20.78;46.14
43711;BME280;29309;42.682;23.372;2022-09-12T14:44:33;94971.03;;;20.65;46.19
43711;BME280;29309;42.682;23.372;2022-09-12T14:47:10;94973.84;;;20.65;46.49
43711;BME280;29309;42.682;23.372;2022-09-12T14:49:36;94967.34;;;20.46;46.88
43711;BME280;29309;42.682;23.372;2022-09-12T14:52:07;94985.75;;;20.55;47.07
43711;BME280;29309;42.682;23.372;2022-09-12T14:55:18;94990.03;;;20.62;46.24
43711;BME280;29309;42.682;23.372;2022-09-12T14:57:42;94985.78;;;20.59;45.97
43711;BME280;29309;42.682;23.372;2022-09-12T15:02:48;94976.56;;;20.52;46.80
43711;BME280;29309;42.682;23.372;2022-09-12T15:05:17;94980.78;;;20.49;46.86
43711;BME280;29309;42.682;23.372;2022-09-12T15:10:35;94978.59;;;20.42;47.66
43711;BME280;29309;42.682;23.372;2022-09-12T15:15:40;94978.59;;;20.42;46.94